<?xml version="1.0" encoding="UTF-8" standalone="no" ?>
<gpx xmlns="http://www.topografix.com/GPX/1/1" xmlns:xsi="http://www.w3.org/2001/XMLSchema-instance" xsi:schemaLocation="http://www.topografix.com/GPX/1/1 http://www.topografix.com/GPX/1/1/gpx.xsd" version="1.1" creator="VisuGPX - https://www.visugpx.com">
  <metadata>
    <name>Circuit bonsecours</name>
  </metadata>
  <trk>
    <name><![CDATA[Circuit bonsecours_4]]></name>
    <trkseg>
      <trkpt lat="49.42811" lon="1.1391">
        <ele>142.889999</ele>
        <time>2020-12-05T13:20:24Z</time>
      </trkpt>
      <trkpt lat="49.42783" lon="1.13878">
        <ele>142.410004</ele>
        <time>2020-12-05T13:20:34Z</time>
      </trkpt>
      <trkpt lat="49.42765" lon="1.1386">
        <ele>142.410004</ele>
        <time>2020-12-05T13:20:39Z</time>
      </trkpt>
      <trkpt lat="49.42761" lon="1.13858">
        <ele>142.410004</ele>
        <time>2020-12-05T13:20:40Z</time>
      </trkpt>
      <trkpt lat="49.42757" lon="1.13856">
        <ele>142.410004</ele>
        <time>2020-12-05T13:20:41Z</time>
      </trkpt>
      <trkpt lat="49.42753" lon="1.13854">
        <ele>143.850006</ele>
        <time>2020-12-05T13:20:42Z</time>
      </trkpt>
      <trkpt lat="49.42749" lon="1.13851">
        <ele>143.850006</ele>
        <time>2020-12-05T13:20:43Z</time>
      </trkpt>
      <trkpt lat="49.42709" lon="1.1382">
        <ele>145.779999</ele>
        <time>2020-12-05T13:20:54Z</time>
      </trkpt>
      <trkpt lat="49.42702" lon="1.13815">
        <ele>145.779999</ele>
        <time>2020-12-05T13:20:56Z</time>
      </trkpt>
      <trkpt lat="49.42653" lon="1.13777">
        <ele>147.699997</ele>
        <time>2020-12-05T13:21:11Z</time>
      </trkpt>
      <trkpt lat="49.42649" lon="1.13778">
        <ele>148.660004</ele>
        <time>2020-12-05T13:21:12Z</time>
      </trkpt>
      <trkpt lat="49.42645" lon="1.13781">
        <ele>148.660004</ele>
        <time>2020-12-05T13:21:13Z</time>
      </trkpt>
      <trkpt lat="49.42634" lon="1.13791">
        <ele>148.660004</ele>
        <time>2020-12-05T13:21:16Z</time>
      </trkpt>
      <trkpt lat="49.42562" lon="1.13839">
        <ele>146.259995</ele>
        <time>2020-12-05T13:21:32Z</time>
      </trkpt>
      <trkpt lat="49.42559" lon="1.13844">
        <ele>146.259995</ele>
        <time>2020-12-05T13:21:33Z</time>
      </trkpt>
      <trkpt lat="49.42558" lon="1.13852">
        <ele>146.259995</ele>
        <time>2020-12-05T13:21:34Z</time>
      </trkpt>
      <trkpt lat="49.42559" lon="1.1386">
        <ele>146.259995</ele>
        <time>2020-12-05T13:21:35Z</time>
      </trkpt>
      <trkpt lat="49.42559" lon="1.13866">
        <ele>145.779999</ele>
        <time>2020-12-05T13:21:36Z</time>
      </trkpt>
      <trkpt lat="49.4256" lon="1.13874">
        <ele>145.779999</ele>
        <time>2020-12-05T13:21:37Z</time>
      </trkpt>
      <trkpt lat="49.42567" lon="1.13942">
        <ele>147.699997</ele>
        <time>2020-12-05T13:21:46Z</time>
      </trkpt>
      <trkpt lat="49.42571" lon="1.1396">
        <ele>148.179993</ele>
        <time>2020-12-05T13:21:49Z</time>
      </trkpt>
      <trkpt lat="49.42578" lon="1.13977">
        <ele>146.740005</ele>
        <time>2020-12-05T13:21:52Z</time>
      </trkpt>
      <trkpt lat="49.42581" lon="1.13982">
        <ele>146.740005</ele>
        <time>2020-12-05T13:21:53Z</time>
      </trkpt>
      <trkpt lat="49.42585" lon="1.13986">
        <ele>146.740005</ele>
        <time>2020-12-05T13:21:54Z</time>
      </trkpt>
      <trkpt lat="49.42589" lon="1.13987">
        <ele>146.740005</ele>
        <time>2020-12-05T13:21:55Z</time>
      </trkpt>
      <trkpt lat="49.42594" lon="1.13987">
        <ele>145.779999</ele>
        <time>2020-12-05T13:21:56Z</time>
      </trkpt>
      <trkpt lat="49.42598" lon="1.13989">
        <ele>145.779999</ele>
        <time>2020-12-05T13:21:57Z</time>
      </trkpt>
      <trkpt lat="49.42602" lon="1.13993">
        <ele>145.779999</ele>
        <time>2020-12-05T13:21:58Z</time>
      </trkpt>
      <trkpt lat="49.42604" lon="1.13999">
        <ele>144.820007</ele>
        <time>2020-12-05T13:21:59Z</time>
      </trkpt>
      <trkpt lat="49.42606" lon="1.14007">
        <ele>144.820007</ele>
        <time>2020-12-05T13:22:00Z</time>
      </trkpt>
      <trkpt lat="49.42607" lon="1.14015">
        <ele>144.820007</ele>
        <time>2020-12-05T13:22:01Z</time>
      </trkpt>
      <trkpt lat="49.42627" lon="1.14136">
        <ele>143.850006</ele>
        <time>2020-12-05T13:22:14Z</time>
      </trkpt>
      <trkpt lat="49.42635" lon="1.14187">
        <ele>141.449997</ele>
        <time>2020-12-05T13:22:19Z</time>
      </trkpt>
      <trkpt lat="49.42646" lon="1.14252">
        <ele>143.850006</ele>
        <time>2020-12-05T13:22:26Z</time>
      </trkpt>
      <trkpt lat="49.42667" lon="1.1436">
        <ele>143.369995</ele>
        <time>2020-12-05T13:22:38Z</time>
      </trkpt>
      <trkpt lat="49.42669" lon="1.14369">
        <ele>143.369995</ele>
        <time>2020-12-05T13:22:39Z</time>
      </trkpt>
      <trkpt lat="49.42685" lon="1.14448">
        <ele>144.339996</ele>
        <time>2020-12-05T13:22:49Z</time>
      </trkpt>
      <trkpt lat="49.42687" lon="1.14447">
        <ele>142.410004</ele>
        <time>2020-12-05T13:22:50Z</time>
      </trkpt>
      <trkpt lat="49.4269" lon="1.14444">
        <ele>142.410004</ele>
        <time>2020-12-05T13:22:51Z</time>
      </trkpt>
      <trkpt lat="49.42693" lon="1.1444">
        <ele>141.929993</ele>
        <time>2020-12-05T13:22:52Z</time>
      </trkpt>
      <trkpt lat="49.42705" lon="1.14441">
        <ele>140.970001</ele>
        <time>2020-12-05T13:22:58Z</time>
      </trkpt>
      <trkpt lat="49.42706" lon="1.14446">
        <ele>140.970001</ele>
        <time>2020-12-05T13:22:59Z</time>
      </trkpt>
      <trkpt lat="49.42706" lon="1.14452">
        <ele>140.970001</ele>
        <time>2020-12-05T13:23:00Z</time>
      </trkpt>
      <trkpt lat="49.42708" lon="1.1446">
        <ele>140.970001</ele>
        <time>2020-12-05T13:23:01Z</time>
      </trkpt>
      <trkpt lat="49.42711" lon="1.14468">
        <ele>140.970001</ele>
        <time>2020-12-05T13:23:02Z</time>
      </trkpt>
      <trkpt lat="49.42718" lon="1.14495">
        <ele>140.490005</ele>
        <time>2020-12-05T13:23:05Z</time>
      </trkpt>
      <trkpt lat="49.42721" lon="1.14504">
        <ele>140.490005</ele>
        <time>2020-12-05T13:23:06Z</time>
      </trkpt>
      <trkpt lat="49.42728" lon="1.14521">
        <ele>139.529999</ele>
        <time>2020-12-05T13:23:08Z</time>
      </trkpt>
      <trkpt lat="49.4273" lon="1.1453">
        <ele>139.529999</ele>
        <time>2020-12-05T13:23:09Z</time>
      </trkpt>
      <trkpt lat="49.42732" lon="1.14539">
        <ele>139.529999</ele>
        <time>2020-12-05T13:23:10Z</time>
      </trkpt>
      <trkpt lat="49.42736" lon="1.14554">
        <ele>139.529999</ele>
        <time>2020-12-05T13:23:12Z</time>
      </trkpt>
      <trkpt lat="49.42737" lon="1.14563">
        <ele>139.529999</ele>
        <time>2020-12-05T13:23:13Z</time>
      </trkpt>
      <trkpt lat="49.42737" lon="1.14572">
        <ele>140.970001</ele>
        <time>2020-12-05T13:23:14Z</time>
      </trkpt>
      <trkpt lat="49.42737" lon="1.14582">
        <ele>140.970001</ele>
        <time>2020-12-05T13:23:15Z</time>
      </trkpt>
      <trkpt lat="49.42737" lon="1.14591">
        <ele>141.929993</ele>
        <time>2020-12-05T13:23:16Z</time>
      </trkpt>
      <trkpt lat="49.42737" lon="1.146">
        <ele>141.929993</ele>
        <time>2020-12-05T13:23:17Z</time>
      </trkpt>
      <trkpt lat="49.42737" lon="1.1461">
        <ele>141.929993</ele>
        <time>2020-12-05T13:23:18Z</time>
      </trkpt>
      <trkpt lat="49.42743" lon="1.14683">
        <ele>141.929993</ele>
        <time>2020-12-05T13:23:26Z</time>
      </trkpt>
      <trkpt lat="49.42745" lon="1.14693">
        <ele>140.970001</ele>
        <time>2020-12-05T13:23:27Z</time>
      </trkpt>
      <trkpt lat="49.42746" lon="1.14704">
        <ele>140.490005</ele>
        <time>2020-12-05T13:23:28Z</time>
      </trkpt>
      <trkpt lat="49.42748" lon="1.14714">
        <ele>140.970001</ele>
        <time>2020-12-05T13:23:29Z</time>
      </trkpt>
      <trkpt lat="49.42749" lon="1.14725">
        <ele>140.490005</ele>
        <time>2020-12-05T13:23:30Z</time>
      </trkpt>
      <trkpt lat="49.42751" lon="1.14735">
        <ele>140.490005</ele>
        <time>2020-12-05T13:23:31Z</time>
      </trkpt>
      <trkpt lat="49.42753" lon="1.14744">
        <ele>140.490005</ele>
        <time>2020-12-05T13:23:32Z</time>
      </trkpt>
      <trkpt lat="49.42757" lon="1.14753">
        <ele>139.529999</ele>
        <time>2020-12-05T13:23:33Z</time>
      </trkpt>
      <trkpt lat="49.42762" lon="1.1476">
        <ele>139.529999</ele>
        <time>2020-12-05T13:23:34Z</time>
      </trkpt>
      <trkpt lat="49.42768" lon="1.14766">
        <ele>138.089996</ele>
        <time>2020-12-05T13:23:35Z</time>
      </trkpt>
      <trkpt lat="49.42773" lon="1.14774">
        <ele>137.610001</ele>
        <time>2020-12-05T13:23:36Z</time>
      </trkpt>
      <trkpt lat="49.42778" lon="1.14783">
        <ele>137.130005</ele>
        <time>2020-12-05T13:23:37Z</time>
      </trkpt>
      <trkpt lat="49.42787" lon="1.14804">
        <ele>135.679993</ele>
        <time>2020-12-05T13:23:39Z</time>
      </trkpt>
      <trkpt lat="49.42789" lon="1.14816">
        <ele>134.240005</ele>
        <time>2020-12-05T13:23:40Z</time>
      </trkpt>
      <trkpt lat="49.42788" lon="1.14828">
        <ele>134.240005</ele>
        <time>2020-12-05T13:23:41Z</time>
      </trkpt>
      <trkpt lat="49.42785" lon="1.14838">
        <ele>134.240005</ele>
        <time>2020-12-05T13:23:42Z</time>
      </trkpt>
      <trkpt lat="49.42781" lon="1.14846">
        <ele>134.240005</ele>
        <time>2020-12-05T13:23:43Z</time>
      </trkpt>
      <trkpt lat="49.42777" lon="1.14853">
        <ele>135.679993</ele>
        <time>2020-12-05T13:23:44Z</time>
      </trkpt>
      <trkpt lat="49.42776" lon="1.1486">
        <ele>135.679993</ele>
        <time>2020-12-05T13:23:45Z</time>
      </trkpt>
      <trkpt lat="49.42775" lon="1.14869">
        <ele>135.679993</ele>
        <time>2020-12-05T13:23:46Z</time>
      </trkpt>
      <trkpt lat="49.42772" lon="1.14877">
        <ele>135.679993</ele>
        <time>2020-12-05T13:23:47Z</time>
      </trkpt>
      <trkpt lat="49.42771" lon="1.14886">
        <ele>135.679993</ele>
        <time>2020-12-05T13:23:48Z</time>
      </trkpt>
      <trkpt lat="49.42771" lon="1.14894">
        <ele>136.639999</ele>
        <time>2020-12-05T13:23:49Z</time>
      </trkpt>
      <trkpt lat="49.4277" lon="1.14901">
        <ele>136.639999</ele>
        <time>2020-12-05T13:23:50Z</time>
      </trkpt>
      <trkpt lat="49.42747" lon="1.14939">
        <ele>137.610001</ele>
        <time>2020-12-05T13:23:56Z</time>
      </trkpt>
      <trkpt lat="49.42741" lon="1.14951">
        <ele>138.089996</ele>
        <time>2020-12-05T13:23:58Z</time>
      </trkpt>
      <trkpt lat="49.42721" lon="1.15003">
        <ele>139.050003</ele>
        <time>2020-12-05T13:24:05Z</time>
      </trkpt>
      <trkpt lat="49.42709" lon="1.15023">
        <ele>139.050003</ele>
        <time>2020-12-05T13:24:08Z</time>
      </trkpt>
      <trkpt lat="49.42695" lon="1.15081">
        <ele>140.009995</ele>
        <time>2020-12-05T13:24:15Z</time>
      </trkpt>
      <trkpt lat="49.42685" lon="1.15113">
        <ele>140.009995</ele>
        <time>2020-12-05T13:24:19Z</time>
      </trkpt>
      <trkpt lat="49.42691" lon="1.15136">
        <ele>140.009995</ele>
        <time>2020-12-05T13:24:23Z</time>
      </trkpt>
      <trkpt lat="49.4273" lon="1.15185">
        <ele>134.720001</ele>
        <time>2020-12-05T13:24:31Z</time>
      </trkpt>
      <trkpt lat="49.42743" lon="1.15202">
        <ele>130.880005</ele>
        <time>2020-12-05T13:24:34Z</time>
      </trkpt>
      <trkpt lat="49.42744" lon="1.15209">
        <ele>130.399994</ele>
        <time>2020-12-05T13:24:35Z</time>
      </trkpt>
      <trkpt lat="49.42743" lon="1.15215">
        <ele>129.919998</ele>
        <time>2020-12-05T13:24:36Z</time>
      </trkpt>
      <trkpt lat="49.42741" lon="1.15221">
        <ele>129.919998</ele>
        <time>2020-12-05T13:24:37Z</time>
      </trkpt>
      <trkpt lat="49.42739" lon="1.15228">
        <ele>129.919998</ele>
        <time>2020-12-05T13:24:38Z</time>
      </trkpt>
      <trkpt lat="49.42735" lon="1.15253">
        <ele>130.880005</ele>
        <time>2020-12-05T13:24:41Z</time>
      </trkpt>
      <trkpt lat="49.42736" lon="1.15263">
        <ele>130.880005</ele>
        <time>2020-12-05T13:24:42Z</time>
      </trkpt>
      <trkpt lat="49.42738" lon="1.15274">
        <ele>129.429993</ele>
        <time>2020-12-05T13:24:43Z</time>
      </trkpt>
      <trkpt lat="49.42739" lon="1.15285">
        <ele>128.470001</ele>
        <time>2020-12-05T13:24:44Z</time>
      </trkpt>
      <trkpt lat="49.42742" lon="1.15297">
        <ele>127.989998</ele>
        <time>2020-12-05T13:24:45Z</time>
      </trkpt>
      <trkpt lat="49.42744" lon="1.15308">
        <ele>127.510002</ele>
        <time>2020-12-05T13:24:46Z</time>
      </trkpt>
      <trkpt lat="49.42746" lon="1.1532">
        <ele>126.07</ele>
        <time>2020-12-05T13:24:47Z</time>
      </trkpt>
      <trkpt lat="49.42748" lon="1.15331">
        <ele>126.550003</ele>
        <time>2020-12-05T13:24:48Z</time>
      </trkpt>
      <trkpt lat="49.4275" lon="1.15343">
        <ele>126.07</ele>
        <time>2020-12-05T13:24:49Z</time>
      </trkpt>
      <trkpt lat="49.4275" lon="1.15355">
        <ele>125.110001</ele>
        <time>2020-12-05T13:24:50Z</time>
      </trkpt>
      <trkpt lat="49.42749" lon="1.15367">
        <ele>124.150002</ele>
        <time>2020-12-05T13:24:51Z</time>
      </trkpt>
      <trkpt lat="49.42747" lon="1.15378">
        <ele>124.150002</ele>
        <time>2020-12-05T13:24:52Z</time>
      </trkpt>
      <trkpt lat="49.42745" lon="1.15389">
        <ele>124.150002</ele>
        <time>2020-12-05T13:24:53Z</time>
      </trkpt>
      <trkpt lat="49.42744" lon="1.15401">
        <ele>124.150002</ele>
        <time>2020-12-05T13:24:54Z</time>
      </trkpt>
      <trkpt lat="49.42744" lon="1.15413">
        <ele>123.190002</ele>
        <time>2020-12-05T13:24:55Z</time>
      </trkpt>
      <trkpt lat="49.42741" lon="1.15433">
        <ele>122.220001</ele>
        <time>2020-12-05T13:24:57Z</time>
      </trkpt>
      <trkpt lat="49.42738" lon="1.1544">
        <ele>121.260002</ele>
        <time>2020-12-05T13:24:58Z</time>
      </trkpt>
      <trkpt lat="49.4272" lon="1.1546">
        <ele>123.190002</ele>
        <time>2020-12-05T13:25:02Z</time>
      </trkpt>
      <trkpt lat="49.42715" lon="1.15471">
        <ele>124.150002</ele>
        <time>2020-12-05T13:25:04Z</time>
      </trkpt>
      <trkpt lat="49.42711" lon="1.15489">
        <ele>124.150002</ele>
        <time>2020-12-05T13:25:07Z</time>
      </trkpt>
      <trkpt lat="49.42717" lon="1.15509">
        <ele>122.709999</ele>
        <time>2020-12-05T13:25:11Z</time>
      </trkpt>
      <trkpt lat="49.42734" lon="1.15511">
        <ele>119.339996</ele>
        <time>2020-12-05T13:25:16Z</time>
      </trkpt>
      <trkpt lat="49.42736" lon="1.1549">
        <ele>115.980003</ele>
        <time>2020-12-05T13:25:20Z</time>
      </trkpt>
      <trkpt lat="49.42749" lon="1.1547">
        <ele>114.050003</ele>
        <time>2020-12-05T13:25:23Z</time>
      </trkpt>
      <trkpt lat="49.4276" lon="1.1546">
        <ele>116.459999</ele>
        <time>2020-12-05T13:25:26Z</time>
      </trkpt>
      <trkpt lat="49.42773" lon="1.15442">
        <ele>113.089996</ele>
        <time>2020-12-05T13:25:29Z</time>
      </trkpt>
      <trkpt lat="49.42777" lon="1.15436">
        <ele>111.169998</ele>
        <time>2020-12-05T13:25:30Z</time>
      </trkpt>
      <trkpt lat="49.42778" lon="1.15431">
        <ele>110.690002</ele>
        <time>2020-12-05T13:25:31Z</time>
      </trkpt>
      <trkpt lat="49.42779" lon="1.15425">
        <ele>110.690002</ele>
        <time>2020-12-05T13:25:32Z</time>
      </trkpt>
      <trkpt lat="49.42779" lon="1.1542">
        <ele>112.610001</ele>
        <time>2020-12-05T13:25:33Z</time>
      </trkpt>
      <trkpt lat="49.42779" lon="1.15416">
        <ele>113.089996</ele>
        <time>2020-12-05T13:25:34Z</time>
      </trkpt>
      <trkpt lat="49.42779" lon="1.15413">
        <ele>113.57</ele>
        <time>2020-12-05T13:25:35Z</time>
      </trkpt>
      <trkpt lat="49.4278" lon="1.15411">
        <ele>113.57</ele>
        <time>2020-12-05T13:25:36Z</time>
      </trkpt>
      <trkpt lat="49.42782" lon="1.15407">
        <ele>113.57</ele>
        <time>2020-12-05T13:25:37Z</time>
      </trkpt>
      <trkpt lat="49.42784" lon="1.15404">
        <ele>113.57</ele>
        <time>2020-12-05T13:25:38Z</time>
      </trkpt>
      <trkpt lat="49.42785" lon="1.15402">
        <ele>112.129997</ele>
        <time>2020-12-05T13:25:39Z</time>
      </trkpt>
      <trkpt lat="49.42786" lon="1.154">
        <ele>112.129997</ele>
        <time>2020-12-05T13:25:40Z</time>
      </trkpt>
      <trkpt lat="49.42788" lon="1.15398">
        <ele>112.129997</ele>
        <time>2020-12-05T13:25:41Z</time>
      </trkpt>
      <trkpt lat="49.42791" lon="1.15396">
        <ele>110.690002</ele>
        <time>2020-12-05T13:25:42Z</time>
      </trkpt>
      <trkpt lat="49.42793" lon="1.15391">
        <ele>110.209999</ele>
        <time>2020-12-05T13:25:43Z</time>
      </trkpt>
      <trkpt lat="49.42793" lon="1.15386">
        <ele>110.209999</ele>
        <time>2020-12-05T13:25:44Z</time>
      </trkpt>
      <trkpt lat="49.42793" lon="1.1538">
        <ele>110.209999</ele>
        <time>2020-12-05T13:25:45Z</time>
      </trkpt>
      <trkpt lat="49.42794" lon="1.15374">
        <ele>110.209999</ele>
        <time>2020-12-05T13:25:46Z</time>
      </trkpt>
      <trkpt lat="49.42795" lon="1.1537">
        <ele>110.209999</ele>
        <time>2020-12-05T13:25:47Z</time>
      </trkpt>
      <trkpt lat="49.42796" lon="1.15366">
        <ele>110.209999</ele>
        <time>2020-12-05T13:25:48Z</time>
      </trkpt>
      <trkpt lat="49.42797" lon="1.15362">
        <ele>110.209999</ele>
        <time>2020-12-05T13:25:49Z</time>
      </trkpt>
      <trkpt lat="49.42797" lon="1.15356">
        <ele>108.769997</ele>
        <time>2020-12-05T13:25:51Z</time>
      </trkpt>
      <trkpt lat="49.42797" lon="1.15355">
        <ele>107.809998</ele>
        <time>2020-12-05T13:25:52Z</time>
      </trkpt>
      <trkpt lat="49.42802" lon="1.15348">
        <ele>104.440002</ele>
        <time>2020-12-05T13:25:56Z</time>
      </trkpt>
      <trkpt lat="49.42805" lon="1.15341">
        <ele>102.519997</ele>
        <time>2020-12-05T13:25:59Z</time>
      </trkpt>
      <trkpt lat="49.42808" lon="1.15337">
        <ele>102.040001</ele>
        <time>2020-12-05T13:26:00Z</time>
      </trkpt>
      <trkpt lat="49.42811" lon="1.15334">
        <ele>102.040001</ele>
        <time>2020-12-05T13:26:01Z</time>
      </trkpt>
      <trkpt lat="49.42817" lon="1.15331">
        <ele>101.559998</ele>
        <time>2020-12-05T13:26:03Z</time>
      </trkpt>
      <trkpt lat="49.42819" lon="1.15326">
        <ele>101.080002</ele>
        <time>2020-12-05T13:26:04Z</time>
      </trkpt>
      <trkpt lat="49.4282" lon="1.15321">
        <ele>100.599998</ele>
        <time>2020-12-05T13:26:05Z</time>
      </trkpt>
      <trkpt lat="49.42819" lon="1.15315">
        <ele>100.599998</ele>
        <time>2020-12-05T13:26:06Z</time>
      </trkpt>
      <trkpt lat="49.42821" lon="1.15311">
        <ele>100.110001</ele>
        <time>2020-12-05T13:26:07Z</time>
      </trkpt>
      <trkpt lat="49.42823" lon="1.15307">
        <ele>100.110001</ele>
        <time>2020-12-05T13:26:08Z</time>
      </trkpt>
      <trkpt lat="49.42825" lon="1.15304">
        <ele>100.110001</ele>
        <time>2020-12-05T13:26:09Z</time>
      </trkpt>
      <trkpt lat="49.42829" lon="1.15301">
        <ele>100.110001</ele>
        <time>2020-12-05T13:26:10Z</time>
      </trkpt>
      <trkpt lat="49.42832" lon="1.15298">
        <ele>99.629997</ele>
        <time>2020-12-05T13:26:11Z</time>
      </trkpt>
      <trkpt lat="49.42834" lon="1.15296">
        <ele>99.629997</ele>
        <time>2020-12-05T13:26:12Z</time>
      </trkpt>
      <trkpt lat="49.42838" lon="1.15288">
        <ele>99.150002</ele>
        <time>2020-12-05T13:26:14Z</time>
      </trkpt>
      <trkpt lat="49.42838" lon="1.15283">
        <ele>98.669998</ele>
        <time>2020-12-05T13:26:15Z</time>
      </trkpt>
      <trkpt lat="49.42838" lon="1.1528">
        <ele>98.669998</ele>
        <time>2020-12-05T13:26:16Z</time>
      </trkpt>
      <trkpt lat="49.42837" lon="1.15273">
        <ele>100.110001</ele>
        <time>2020-12-05T13:26:18Z</time>
      </trkpt>
      <trkpt lat="49.42835" lon="1.15258">
        <ele>103.480003</ele>
        <time>2020-12-05T13:26:22Z</time>
      </trkpt>
      <trkpt lat="49.42835" lon="1.15254">
        <ele>103.480003</ele>
        <time>2020-12-05T13:26:23Z</time>
      </trkpt>
      <trkpt lat="49.42835" lon="1.1525">
        <ele>104.440002</ele>
        <time>2020-12-05T13:26:24Z</time>
      </trkpt>
      <trkpt lat="49.42836" lon="1.15246">
        <ele>104.440002</ele>
        <time>2020-12-05T13:26:25Z</time>
      </trkpt>
      <trkpt lat="49.42836" lon="1.15241">
        <ele>104.440002</ele>
        <time>2020-12-05T13:26:26Z</time>
      </trkpt>
      <trkpt lat="49.42837" lon="1.15236">
        <ele>104.440002</ele>
        <time>2020-12-05T13:26:27Z</time>
      </trkpt>
      <trkpt lat="49.42837" lon="1.15233">
        <ele>104.440002</ele>
        <time>2020-12-05T13:26:28Z</time>
      </trkpt>
      <trkpt lat="49.42838" lon="1.15229">
        <ele>104.440002</ele>
        <time>2020-12-05T13:26:29Z</time>
      </trkpt>
      <trkpt lat="49.42839" lon="1.15225">
        <ele>104.440002</ele>
        <time>2020-12-05T13:26:30Z</time>
      </trkpt>
      <trkpt lat="49.42854" lon="1.15191">
        <ele>102.519997</ele>
        <time>2020-12-05T13:26:40Z</time>
      </trkpt>
      <trkpt lat="49.42857" lon="1.15185">
        <ele>102.519997</ele>
        <time>2020-12-05T13:26:42Z</time>
      </trkpt>
      <trkpt lat="49.42858" lon="1.15182">
        <ele>102.519997</ele>
        <time>2020-12-05T13:26:43Z</time>
      </trkpt>
      <trkpt lat="49.42867" lon="1.15164">
        <ele>101.559998</ele>
        <time>2020-12-05T13:26:49Z</time>
      </trkpt>
      <trkpt lat="49.42868" lon="1.15161">
        <ele>101.559998</ele>
        <time>2020-12-05T13:26:50Z</time>
      </trkpt>
      <trkpt lat="49.42869" lon="1.15157">
        <ele>101.559998</ele>
        <time>2020-12-05T13:26:51Z</time>
      </trkpt>
      <trkpt lat="49.4287" lon="1.15152">
        <ele>101.559998</ele>
        <time>2020-12-05T13:26:52Z</time>
      </trkpt>
      <trkpt lat="49.42871" lon="1.15148">
        <ele>101.559998</ele>
        <time>2020-12-05T13:26:53Z</time>
      </trkpt>
      <trkpt lat="49.42872" lon="1.15144">
        <ele>101.559998</ele>
        <time>2020-12-05T13:26:54Z</time>
      </trkpt>
      <trkpt lat="49.42874" lon="1.15141">
        <ele>101.559998</ele>
        <time>2020-12-05T13:26:55Z</time>
      </trkpt>
      <trkpt lat="49.42877" lon="1.15139">
        <ele>100.599998</ele>
        <time>2020-12-05T13:26:56Z</time>
      </trkpt>
      <trkpt lat="49.42883" lon="1.15134">
        <ele>98.190002</ele>
        <time>2020-12-05T13:26:59Z</time>
      </trkpt>
      <trkpt lat="49.42883" lon="1.15132">
        <ele>98.190002</ele>
        <time>2020-12-05T13:27:00Z</time>
      </trkpt>
      <trkpt lat="49.42884" lon="1.15131">
        <ele>98.669998</ele>
        <time>2020-12-05T13:27:03Z</time>
      </trkpt>
      <trkpt lat="49.42882" lon="1.15113">
        <ele>100.599998</ele>
        <time>2020-12-05T13:27:09Z</time>
      </trkpt>
      <trkpt lat="49.4288" lon="1.15096">
        <ele>104.440002</ele>
        <time>2020-12-05T13:27:16Z</time>
      </trkpt>
      <trkpt lat="49.42879" lon="1.15089">
        <ele>106.360001</ele>
        <time>2020-12-05T13:27:19Z</time>
      </trkpt>
      <trkpt lat="49.42879" lon="1.15068">
        <ele>109.730003</ele>
        <time>2020-12-05T13:27:26Z</time>
      </trkpt>
      <trkpt lat="49.42879" lon="1.15062">
        <ele>110.690002</ele>
        <time>2020-12-05T13:27:28Z</time>
      </trkpt>
      <trkpt lat="49.42878" lon="1.15013">
        <ele>113.089996</ele>
        <time>2020-12-05T13:27:41Z</time>
      </trkpt>
      <trkpt lat="49.4288" lon="1.14973">
        <ele>111.650002</ele>
        <time>2020-12-05T13:27:49Z</time>
      </trkpt>
      <trkpt lat="49.42881" lon="1.14969">
        <ele>111.169998</ele>
        <time>2020-12-05T13:27:50Z</time>
      </trkpt>
      <trkpt lat="49.4287" lon="1.1492">
        <ele>112.129997</ele>
        <time>2020-12-05T13:28:01Z</time>
      </trkpt>
      <trkpt lat="49.42867" lon="1.14913">
        <ele>113.089996</ele>
        <time>2020-12-05T13:28:03Z</time>
      </trkpt>
      <trkpt lat="49.42864" lon="1.14895">
        <ele>114.529999</ele>
        <time>2020-12-05T13:28:08Z</time>
      </trkpt>
      <trkpt lat="49.42853" lon="1.14873">
        <ele>118.860001</ele>
        <time>2020-12-05T13:28:17Z</time>
      </trkpt>
      <trkpt lat="49.42844" lon="1.14864">
        <ele>122.220001</ele>
        <time>2020-12-05T13:28:22Z</time>
      </trkpt>
      <trkpt lat="49.42832" lon="1.14856">
        <ele>125.110001</ele>
        <time>2020-12-05T13:28:28Z</time>
      </trkpt>
      <trkpt lat="49.42819" lon="1.14849">
        <ele>128.470001</ele>
        <time>2020-12-05T13:28:35Z</time>
      </trkpt>
      <trkpt lat="49.42812" lon="1.14844">
        <ele>130.399994</ele>
        <time>2020-12-05T13:28:39Z</time>
      </trkpt>
      <trkpt lat="49.42808" lon="1.14837">
        <ele>131.839996</ele>
        <time>2020-12-05T13:28:42Z</time>
      </trkpt>
      <trkpt lat="49.42808" lon="1.14822">
        <ele>131.839996</ele>
        <time>2020-12-05T13:28:46Z</time>
      </trkpt>
      <trkpt lat="49.42812" lon="1.14808">
        <ele>134.240005</ele>
        <time>2020-12-05T13:28:53Z</time>
      </trkpt>
      <trkpt lat="49.4282" lon="1.14809">
        <ele>134.240005</ele>
        <time>2020-12-05T13:28:56Z</time>
      </trkpt>
      <trkpt lat="49.42832" lon="1.14807">
        <ele>131.839996</ele>
        <time>2020-12-05T13:28:59Z</time>
      </trkpt>
      <trkpt lat="49.42835" lon="1.14802">
        <ele>131.839996</ele>
        <time>2020-12-05T13:29:00Z</time>
      </trkpt>
      <trkpt lat="49.42871" lon="1.14751">
        <ele>132.320007</ele>
        <time>2020-12-05T13:29:13Z</time>
      </trkpt>
      <trkpt lat="49.42881" lon="1.14734">
        <ele>131.839996</ele>
        <time>2020-12-05T13:29:16Z</time>
      </trkpt>
      <trkpt lat="49.42887" lon="1.14724">
        <ele>130.880005</ele>
        <time>2020-12-05T13:29:18Z</time>
      </trkpt>
      <trkpt lat="49.42895" lon="1.14653">
        <ele>127.989998</ele>
        <time>2020-12-05T13:29:26Z</time>
      </trkpt>
      <trkpt lat="49.42875" lon="1.14614">
        <ele>126.550003</ele>
        <time>2020-12-05T13:29:33Z</time>
      </trkpt>
      <trkpt lat="49.42846" lon="1.14581">
        <ele>127.989998</ele>
        <time>2020-12-05T13:29:42Z</time>
      </trkpt>
      <trkpt lat="49.42825" lon="1.14553">
        <ele>129.429993</ele>
        <time>2020-12-05T13:29:50Z</time>
      </trkpt>
      <trkpt lat="49.42818" lon="1.14533">
        <ele>127.989998</ele>
        <time>2020-12-05T13:29:53Z</time>
      </trkpt>
      <trkpt lat="49.42812" lon="1.14519">
        <ele>127.029999</ele>
        <time>2020-12-05T13:29:55Z</time>
      </trkpt>
      <trkpt lat="49.42807" lon="1.14503">
        <ele>126.550003</ele>
        <time>2020-12-05T13:29:57Z</time>
      </trkpt>
      <trkpt lat="49.42805" lon="1.14495">
        <ele>126.550003</ele>
        <time>2020-12-05T13:29:58Z</time>
      </trkpt>
      <trkpt lat="49.42803" lon="1.14489">
        <ele>126.550003</ele>
        <time>2020-12-05T13:29:59Z</time>
      </trkpt>
      <trkpt lat="49.428" lon="1.14482">
        <ele>126.07</ele>
        <time>2020-12-05T13:30:00Z</time>
      </trkpt>
      <trkpt lat="49.42797" lon="1.14477">
        <ele>125.589996</ele>
        <time>2020-12-05T13:30:01Z</time>
      </trkpt>
      <trkpt lat="49.42794" lon="1.14472">
        <ele>124.629997</ele>
        <time>2020-12-05T13:30:02Z</time>
      </trkpt>
      <trkpt lat="49.42791" lon="1.14468">
        <ele>124.629997</ele>
        <time>2020-12-05T13:30:03Z</time>
      </trkpt>
      <trkpt lat="49.42789" lon="1.14461">
        <ele>125.110001</ele>
        <time>2020-12-05T13:30:04Z</time>
      </trkpt>
      <trkpt lat="49.42786" lon="1.14454">
        <ele>124.629997</ele>
        <time>2020-12-05T13:30:05Z</time>
      </trkpt>
      <trkpt lat="49.42783" lon="1.14448">
        <ele>124.629997</ele>
        <time>2020-12-05T13:30:06Z</time>
      </trkpt>
      <trkpt lat="49.4278" lon="1.14443">
        <ele>124.629997</ele>
        <time>2020-12-05T13:30:07Z</time>
      </trkpt>
      <trkpt lat="49.42777" lon="1.14437">
        <ele>124.629997</ele>
        <time>2020-12-05T13:30:08Z</time>
      </trkpt>
      <trkpt lat="49.42775" lon="1.14431">
        <ele>125.589996</ele>
        <time>2020-12-05T13:30:09Z</time>
      </trkpt>
      <trkpt lat="49.42773" lon="1.14427">
        <ele>125.589996</ele>
        <time>2020-12-05T13:30:10Z</time>
      </trkpt>
      <trkpt lat="49.4277" lon="1.14423">
        <ele>126.550003</ele>
        <time>2020-12-05T13:30:11Z</time>
      </trkpt>
      <trkpt lat="49.42768" lon="1.14419">
        <ele>127.510002</ele>
        <time>2020-12-05T13:30:12Z</time>
      </trkpt>
      <trkpt lat="49.42765" lon="1.14416">
        <ele>127.989998</ele>
        <time>2020-12-05T13:30:13Z</time>
      </trkpt>
      <trkpt lat="49.42764" lon="1.14413">
        <ele>128.470001</ele>
        <time>2020-12-05T13:30:14Z</time>
      </trkpt>
      <trkpt lat="49.42763" lon="1.14409">
        <ele>128.949997</ele>
        <time>2020-12-05T13:30:15Z</time>
      </trkpt>
      <trkpt lat="49.42761" lon="1.14405">
        <ele>128.949997</ele>
        <time>2020-12-05T13:30:16Z</time>
      </trkpt>
      <trkpt lat="49.42759" lon="1.14401">
        <ele>128.949997</ele>
        <time>2020-12-05T13:30:17Z</time>
      </trkpt>
      <trkpt lat="49.42757" lon="1.14398">
        <ele>129.429993</ele>
        <time>2020-12-05T13:30:18Z</time>
      </trkpt>
      <trkpt lat="49.42755" lon="1.14396">
        <ele>129.429993</ele>
        <time>2020-12-05T13:30:19Z</time>
      </trkpt>
      <trkpt lat="49.42745" lon="1.14392">
        <ele>132.320007</ele>
        <time>2020-12-05T13:30:25Z</time>
      </trkpt>
      <trkpt lat="49.42736" lon="1.14397">
        <ele>136.160004</ele>
        <time>2020-12-05T13:30:31Z</time>
      </trkpt>
      <trkpt lat="49.42729" lon="1.144">
        <ele>137.610001</ele>
        <time>2020-12-05T13:30:34Z</time>
      </trkpt>
      <trkpt lat="49.42711" lon="1.14408">
        <ele>140.970001</ele>
        <time>2020-12-05T13:30:43Z</time>
      </trkpt>
      <trkpt lat="49.42706" lon="1.14402">
        <ele>141.449997</ele>
        <time>2020-12-05T13:30:46Z</time>
      </trkpt>
      <trkpt lat="49.42693" lon="1.14347">
        <ele>141.449997</ele>
        <time>2020-12-05T13:30:58Z</time>
      </trkpt>
      <trkpt lat="49.42685" lon="1.14303">
        <ele>141.449997</ele>
        <time>2020-12-05T13:31:05Z</time>
      </trkpt>
      <trkpt lat="49.42679" lon="1.14263">
        <ele>140.009995</ele>
        <time>2020-12-05T13:31:10Z</time>
      </trkpt>
      <trkpt lat="49.42679" lon="1.14255">
        <ele>139.529999</ele>
        <time>2020-12-05T13:31:11Z</time>
      </trkpt>
      <trkpt lat="49.42673" lon="1.1422">
        <ele>139.050003</ele>
        <time>2020-12-05T13:31:15Z</time>
      </trkpt>
      <trkpt lat="49.4267" lon="1.14213">
        <ele>139.050003</ele>
        <time>2020-12-05T13:31:16Z</time>
      </trkpt>
      <trkpt lat="49.42667" lon="1.14209">
        <ele>139.050003</ele>
        <time>2020-12-05T13:31:17Z</time>
      </trkpt>
      <trkpt lat="49.42661" lon="1.14203">
        <ele>140.970001</ele>
        <time>2020-12-05T13:31:19Z</time>
      </trkpt>
      <trkpt lat="49.42659" lon="1.14198">
        <ele>141.449997</ele>
        <time>2020-12-05T13:31:20Z</time>
      </trkpt>
      <trkpt lat="49.42658" lon="1.14192">
        <ele>141.449997</ele>
        <time>2020-12-05T13:31:21Z</time>
      </trkpt>
      <trkpt lat="49.42658" lon="1.14186">
        <ele>141.449997</ele>
        <time>2020-12-05T13:31:22Z</time>
      </trkpt>
      <trkpt lat="49.42658" lon="1.14179">
        <ele>141.449997</ele>
        <time>2020-12-05T13:31:23Z</time>
      </trkpt>
      <trkpt lat="49.42659" lon="1.14161">
        <ele>140.009995</ele>
        <time>2020-12-05T13:31:25Z</time>
      </trkpt>
      <trkpt lat="49.42658" lon="1.1415">
        <ele>140.009995</ele>
        <time>2020-12-05T13:31:26Z</time>
      </trkpt>
      <trkpt lat="49.42656" lon="1.14145">
        <ele>140.009995</ele>
        <time>2020-12-05T13:31:27Z</time>
      </trkpt>
      <trkpt lat="49.42654" lon="1.14136">
        <ele>140.009995</ele>
        <time>2020-12-05T13:31:28Z</time>
      </trkpt>
      <trkpt lat="49.42653" lon="1.14128">
        <ele>140.009995</ele>
        <time>2020-12-05T13:31:29Z</time>
      </trkpt>
      <trkpt lat="49.42648" lon="1.14104">
        <ele>141.449997</ele>
        <time>2020-12-05T13:31:32Z</time>
      </trkpt>
      <trkpt lat="49.42645" lon="1.14097">
        <ele>141.929993</ele>
        <time>2020-12-05T13:31:33Z</time>
      </trkpt>
      <trkpt lat="49.42643" lon="1.1409">
        <ele>142.410004</ele>
        <time>2020-12-05T13:31:34Z</time>
      </trkpt>
      <trkpt lat="49.42642" lon="1.14083">
        <ele>142.410004</ele>
        <time>2020-12-05T13:31:35Z</time>
      </trkpt>
      <trkpt lat="49.42641" lon="1.14075">
        <ele>142.410004</ele>
        <time>2020-12-05T13:31:36Z</time>
      </trkpt>
      <trkpt lat="49.4264" lon="1.14068">
        <ele>141.929993</ele>
        <time>2020-12-05T13:31:37Z</time>
      </trkpt>
      <trkpt lat="49.42639" lon="1.14061">
        <ele>141.929993</ele>
        <time>2020-12-05T13:31:38Z</time>
      </trkpt>
      <trkpt lat="49.42637" lon="1.14053">
        <ele>142.889999</ele>
        <time>2020-12-05T13:31:39Z</time>
      </trkpt>
      <trkpt lat="49.42623" lon="1.14006">
        <ele>142.889999</ele>
        <time>2020-12-05T13:31:45Z</time>
      </trkpt>
      <trkpt lat="49.42619" lon="1.14">
        <ele>143.369995</ele>
        <time>2020-12-05T13:31:46Z</time>
      </trkpt>
      <trkpt lat="49.42616" lon="1.13995">
        <ele>143.850006</ele>
        <time>2020-12-05T13:31:47Z</time>
      </trkpt>
      <trkpt lat="49.42612" lon="1.1399">
        <ele>143.850006</ele>
        <time>2020-12-05T13:31:48Z</time>
      </trkpt>
      <trkpt lat="49.42608" lon="1.13987">
        <ele>144.820007</ele>
        <time>2020-12-05T13:31:49Z</time>
      </trkpt>
      <trkpt lat="49.42603" lon="1.13983">
        <ele>145.300003</ele>
        <time>2020-12-05T13:31:50Z</time>
      </trkpt>
      <trkpt lat="49.426" lon="1.13978">
        <ele>145.300003</ele>
        <time>2020-12-05T13:31:51Z</time>
      </trkpt>
      <trkpt lat="49.42598" lon="1.13969">
        <ele>145.300003</ele>
        <time>2020-12-05T13:31:52Z</time>
      </trkpt>
      <trkpt lat="49.42597" lon="1.13963">
        <ele>145.300003</ele>
        <time>2020-12-05T13:31:53Z</time>
      </trkpt>
      <trkpt lat="49.42595" lon="1.13955">
        <ele>145.779999</ele>
        <time>2020-12-05T13:31:54Z</time>
      </trkpt>
      <trkpt lat="49.42594" lon="1.13948">
        <ele>145.779999</ele>
        <time>2020-12-05T13:31:55Z</time>
      </trkpt>
      <trkpt lat="49.42585" lon="1.13907">
        <ele>145.779999</ele>
        <time>2020-12-05T13:32:01Z</time>
      </trkpt>
      <trkpt lat="49.42583" lon="1.139">
        <ele>145.779999</ele>
        <time>2020-12-05T13:32:02Z</time>
      </trkpt>
      <trkpt lat="49.4258" lon="1.13894">
        <ele>145.779999</ele>
        <time>2020-12-05T13:32:03Z</time>
      </trkpt>
      <trkpt lat="49.4257" lon="1.13868">
        <ele>145.779999</ele>
        <time>2020-12-05T13:32:08Z</time>
      </trkpt>
      <trkpt lat="49.42571" lon="1.13861">
        <ele>145.779999</ele>
        <time>2020-12-05T13:32:09Z</time>
      </trkpt>
      <trkpt lat="49.42573" lon="1.13858">
        <ele>145.779999</ele>
        <time>2020-12-05T13:32:10Z</time>
      </trkpt>
      <trkpt lat="49.42576" lon="1.13855">
        <ele>145.779999</ele>
        <time>2020-12-05T13:32:11Z</time>
      </trkpt>
      <trkpt lat="49.4258" lon="1.1385">
        <ele>145.779999</ele>
        <time>2020-12-05T13:32:12Z</time>
      </trkpt>
      <trkpt lat="49.42583" lon="1.13844">
        <ele>145.779999</ele>
        <time>2020-12-05T13:32:13Z</time>
      </trkpt>
      <trkpt lat="49.42585" lon="1.13839">
        <ele>146.259995</ele>
        <time>2020-12-05T13:32:14Z</time>
      </trkpt>
      <trkpt lat="49.42587" lon="1.13836">
        <ele>146.259995</ele>
        <time>2020-12-05T13:32:15Z</time>
      </trkpt>
      <trkpt lat="49.4259" lon="1.13831">
        <ele>146.259995</ele>
        <time>2020-12-05T13:32:16Z</time>
      </trkpt>
      <trkpt lat="49.42593" lon="1.13827">
        <ele>146.740005</ele>
        <time>2020-12-05T13:32:17Z</time>
      </trkpt>
      <trkpt lat="49.42597" lon="1.13823">
        <ele>146.740005</ele>
        <time>2020-12-05T13:32:18Z</time>
      </trkpt>
      <trkpt lat="49.42602" lon="1.13821">
        <ele>146.740005</ele>
        <time>2020-12-05T13:32:19Z</time>
      </trkpt>
      <trkpt lat="49.42606" lon="1.13819">
        <ele>147.220001</ele>
        <time>2020-12-05T13:32:20Z</time>
      </trkpt>
      <trkpt lat="49.4261" lon="1.13816">
        <ele>147.220001</ele>
        <time>2020-12-05T13:32:21Z</time>
      </trkpt>
      <trkpt lat="49.42623" lon="1.13807">
        <ele>147.699997</ele>
        <time>2020-12-05T13:32:24Z</time>
      </trkpt>
      <trkpt lat="49.42627" lon="1.13806">
        <ele>148.179993</ele>
        <time>2020-12-05T13:32:25Z</time>
      </trkpt>
      <trkpt lat="49.42632" lon="1.13805">
        <ele>148.179993</ele>
        <time>2020-12-05T13:32:26Z</time>
      </trkpt>
      <trkpt lat="49.42636" lon="1.13802">
        <ele>148.660004</ele>
        <time>2020-12-05T13:32:27Z</time>
      </trkpt>
      <trkpt lat="49.4264" lon="1.13799">
        <ele>148.660004</ele>
        <time>2020-12-05T13:32:28Z</time>
      </trkpt>
      <trkpt lat="49.42643" lon="1.13795">
        <ele>148.660004</ele>
        <time>2020-12-05T13:32:29Z</time>
      </trkpt>
      <trkpt lat="49.42646" lon="1.13794">
        <ele>148.660004</ele>
        <time>2020-12-05T13:32:30Z</time>
      </trkpt>
      <trkpt lat="49.42649" lon="1.13799">
        <ele>149.139999</ele>
        <time>2020-12-05T13:32:31Z</time>
      </trkpt>
      <trkpt lat="49.42649" lon="1.13805">
        <ele>149.139999</ele>
        <time>2020-12-05T13:32:32Z</time>
      </trkpt>
      <trkpt lat="49.42641" lon="1.13821">
        <ele>147.220001</ele>
        <time>2020-12-05T13:32:35Z</time>
      </trkpt>
      <trkpt lat="49.42636" lon="1.13825">
        <ele>147.220001</ele>
        <time>2020-12-05T13:32:36Z</time>
      </trkpt>
      <trkpt lat="49.42616" lon="1.13837">
        <ele>147.220001</ele>
        <time>2020-12-05T13:32:40Z</time>
      </trkpt>
      <trkpt lat="49.42599" lon="1.13843">
        <ele>147.220001</ele>
        <time>2020-12-05T13:32:43Z</time>
      </trkpt>
      <trkpt lat="49.42595" lon="1.13849">
        <ele>146.259995</ele>
        <time>2020-12-05T13:32:44Z</time>
      </trkpt>
      <trkpt lat="49.42594" lon="1.13854">
        <ele>146.740005</ele>
        <time>2020-12-05T13:32:45Z</time>
      </trkpt>
      <trkpt lat="49.42595" lon="1.13861">
        <ele>146.259995</ele>
        <time>2020-12-05T13:32:46Z</time>
      </trkpt>
      <trkpt lat="49.42597" lon="1.13867">
        <ele>146.259995</ele>
        <time>2020-12-05T13:32:47Z</time>
      </trkpt>
      <trkpt lat="49.426" lon="1.13873">
        <ele>146.259995</ele>
        <time>2020-12-05T13:32:48Z</time>
      </trkpt>
      <trkpt lat="49.42604" lon="1.13878">
        <ele>146.259995</ele>
        <time>2020-12-05T13:32:49Z</time>
      </trkpt>
      <trkpt lat="49.42609" lon="1.13882">
        <ele>146.259995</ele>
        <time>2020-12-05T13:32:50Z</time>
      </trkpt>
      <trkpt lat="49.42614" lon="1.13886">
        <ele>146.259995</ele>
        <time>2020-12-05T13:32:51Z</time>
      </trkpt>
      <trkpt lat="49.42619" lon="1.13889">
        <ele>146.259995</ele>
        <time>2020-12-05T13:32:52Z</time>
      </trkpt>
      <trkpt lat="49.42629" lon="1.13895">
        <ele>146.259995</ele>
        <time>2020-12-05T13:32:54Z</time>
      </trkpt>
      <trkpt lat="49.42633" lon="1.139">
        <ele>146.259995</ele>
        <time>2020-12-05T13:32:55Z</time>
      </trkpt>
      <trkpt lat="49.42638" lon="1.13904">
        <ele>145.779999</ele>
        <time>2020-12-05T13:32:56Z</time>
      </trkpt>
      <trkpt lat="49.42662" lon="1.13892">
        <ele>144.820007</ele>
        <time>2020-12-05T13:33:01Z</time>
      </trkpt>
      <trkpt lat="49.4269" lon="1.1386">
        <ele>144.820007</ele>
        <time>2020-12-05T13:33:07Z</time>
      </trkpt>
      <trkpt lat="49.42713" lon="1.13853">
        <ele>144.339996</ele>
        <time>2020-12-05T13:33:12Z</time>
      </trkpt>
      <trkpt lat="49.42719" lon="1.139">
        <ele>143.850006</ele>
        <time>2020-12-05T13:33:20Z</time>
      </trkpt>
      <trkpt lat="49.42715" lon="1.13906">
        <ele>143.850006</ele>
        <time>2020-12-05T13:33:21Z</time>
      </trkpt>
      <trkpt lat="49.427" lon="1.13931">
        <ele>142.889999</ele>
        <time>2020-12-05T13:33:25Z</time>
      </trkpt>
      <trkpt lat="49.42675" lon="1.13938">
        <ele>142.410004</ele>
        <time>2020-12-05T13:33:29Z</time>
      </trkpt>
      <trkpt lat="49.42669" lon="1.13961">
        <ele>142.410004</ele>
        <time>2020-12-05T13:33:34Z</time>
      </trkpt>
      <trkpt lat="49.4268" lon="1.13968">
        <ele>142.410004</ele>
        <time>2020-12-05T13:33:36Z</time>
      </trkpt>
      <trkpt lat="49.42684" lon="1.13972">
        <ele>141.449997</ele>
        <time>2020-12-05T13:33:37Z</time>
      </trkpt>
      <trkpt lat="49.42689" lon="1.13978">
        <ele>141.449997</ele>
        <time>2020-12-05T13:33:38Z</time>
      </trkpt>
      <trkpt lat="49.42693" lon="1.13986">
        <ele>140.970001</ele>
        <time>2020-12-05T13:33:39Z</time>
      </trkpt>
      <trkpt lat="49.42695" lon="1.13994">
        <ele>140.970001</ele>
        <time>2020-12-05T13:33:40Z</time>
      </trkpt>
      <trkpt lat="49.42696" lon="1.14004">
        <ele>140.970001</ele>
        <time>2020-12-05T13:33:41Z</time>
      </trkpt>
      <trkpt lat="49.42696" lon="1.14013">
        <ele>140.970001</ele>
        <time>2020-12-05T13:33:42Z</time>
      </trkpt>
      <trkpt lat="49.42695" lon="1.14023">
        <ele>140.970001</ele>
        <time>2020-12-05T13:33:43Z</time>
      </trkpt>
      <trkpt lat="49.42693" lon="1.14041">
        <ele>140.490005</ele>
        <time>2020-12-05T13:33:45Z</time>
      </trkpt>
      <trkpt lat="49.42693" lon="1.14051">
        <ele>140.490005</ele>
        <time>2020-12-05T13:33:46Z</time>
      </trkpt>
      <trkpt lat="49.42694" lon="1.1406">
        <ele>139.529999</ele>
        <time>2020-12-05T13:33:47Z</time>
      </trkpt>
      <trkpt lat="49.42696" lon="1.14069">
        <ele>139.529999</ele>
        <time>2020-12-05T13:33:48Z</time>
      </trkpt>
      <trkpt lat="49.427" lon="1.14077">
        <ele>139.529999</ele>
        <time>2020-12-05T13:33:49Z</time>
      </trkpt>
      <trkpt lat="49.42704" lon="1.14084">
        <ele>139.529999</ele>
        <time>2020-12-05T13:33:50Z</time>
      </trkpt>
      <trkpt lat="49.42708" lon="1.1409">
        <ele>139.050003</ele>
        <time>2020-12-05T13:33:51Z</time>
      </trkpt>
      <trkpt lat="49.42712" lon="1.14097">
        <ele>139.050003</ele>
        <time>2020-12-05T13:33:52Z</time>
      </trkpt>
      <trkpt lat="49.42715" lon="1.14105">
        <ele>139.050003</ele>
        <time>2020-12-05T13:33:53Z</time>
      </trkpt>
      <trkpt lat="49.42718" lon="1.14114">
        <ele>139.050003</ele>
        <time>2020-12-05T13:33:54Z</time>
      </trkpt>
      <trkpt lat="49.42738" lon="1.14182">
        <ele>138.089996</ele>
        <time>2020-12-05T13:34:02Z</time>
      </trkpt>
      <trkpt lat="49.42744" lon="1.14187">
        <ele>138.089996</ele>
        <time>2020-12-05T13:34:03Z</time>
      </trkpt>
      <trkpt lat="49.42764" lon="1.14196">
        <ele>137.130005</ele>
        <time>2020-12-05T13:34:06Z</time>
      </trkpt>
      <trkpt lat="49.42771" lon="1.14196">
        <ele>136.639999</ele>
        <time>2020-12-05T13:34:07Z</time>
      </trkpt>
      <trkpt lat="49.42776" lon="1.14193">
        <ele>135.679993</ele>
        <time>2020-12-05T13:34:08Z</time>
      </trkpt>
      <trkpt lat="49.42782" lon="1.14189">
        <ele>135.679993</ele>
        <time>2020-12-05T13:34:09Z</time>
      </trkpt>
      <trkpt lat="49.42786" lon="1.14184">
        <ele>135.679993</ele>
        <time>2020-12-05T13:34:10Z</time>
      </trkpt>
      <trkpt lat="49.42791" lon="1.14179">
        <ele>135.199997</ele>
        <time>2020-12-05T13:34:11Z</time>
      </trkpt>
      <trkpt lat="49.42795" lon="1.14173">
        <ele>135.199997</ele>
        <time>2020-12-05T13:34:12Z</time>
      </trkpt>
      <trkpt lat="49.42811" lon="1.14158">
        <ele>133.759995</ele>
        <time>2020-12-05T13:34:15Z</time>
      </trkpt>
      <trkpt lat="49.42817" lon="1.14153">
        <ele>133.279999</ele>
        <time>2020-12-05T13:34:16Z</time>
      </trkpt>
      <trkpt lat="49.42824" lon="1.14147">
        <ele>132.800003</ele>
        <time>2020-12-05T13:34:17Z</time>
      </trkpt>
      <trkpt lat="49.4283" lon="1.14141">
        <ele>132.800003</ele>
        <time>2020-12-05T13:34:18Z</time>
      </trkpt>
      <trkpt lat="49.42838" lon="1.14136">
        <ele>132.800003</ele>
        <time>2020-12-05T13:34:19Z</time>
      </trkpt>
      <trkpt lat="49.42845" lon="1.14132">
        <ele>132.800003</ele>
        <time>2020-12-05T13:34:20Z</time>
      </trkpt>
      <trkpt lat="49.42852" lon="1.1413">
        <ele>132.800003</ele>
        <time>2020-12-05T13:34:21Z</time>
      </trkpt>
      <trkpt lat="49.42873" lon="1.14122">
        <ele>135.679993</ele>
        <time>2020-12-05T13:34:25Z</time>
      </trkpt>
      <trkpt lat="49.42878" lon="1.1412">
        <ele>136.639999</ele>
        <time>2020-12-05T13:34:26Z</time>
      </trkpt>
      <trkpt lat="49.42882" lon="1.14117">
        <ele>137.610001</ele>
        <time>2020-12-05T13:34:27Z</time>
      </trkpt>
      <trkpt lat="49.42886" lon="1.14113">
        <ele>137.610001</ele>
        <time>2020-12-05T13:34:28Z</time>
      </trkpt>
      <trkpt lat="49.42889" lon="1.14109">
        <ele>138.089996</ele>
        <time>2020-12-05T13:34:29Z</time>
      </trkpt>
      <trkpt lat="49.42903" lon="1.14084">
        <ele>140.490005</ele>
        <time>2020-12-05T13:34:34Z</time>
      </trkpt>
      <trkpt lat="49.42907" lon="1.1408">
        <ele>140.490005</ele>
        <time>2020-12-05T13:34:35Z</time>
      </trkpt>
      <trkpt lat="49.42911" lon="1.14076">
        <ele>140.490005</ele>
        <time>2020-12-05T13:34:36Z</time>
      </trkpt>
      <trkpt lat="49.42933" lon="1.14055">
        <ele>140.490005</ele>
        <time>2020-12-05T13:34:41Z</time>
      </trkpt>
      <trkpt lat="49.42962" lon="1.14056">
        <ele>140.490005</ele>
        <time>2020-12-05T13:34:47Z</time>
      </trkpt>
      <trkpt lat="49.42979" lon="1.14093">
        <ele>138.089996</ele>
        <time>2020-12-05T13:34:54Z</time>
      </trkpt>
      <trkpt lat="49.42975" lon="1.14095">
        <ele>138.089996</ele>
        <time>2020-12-05T13:34:55Z</time>
      </trkpt>
      <trkpt lat="49.42972" lon="1.14097">
        <ele>138.089996</ele>
        <time>2020-12-05T13:34:56Z</time>
      </trkpt>
      <trkpt lat="49.42971" lon="1.14099">
        <ele>138.089996</ele>
        <time>2020-12-05T13:34:57Z</time>
      </trkpt>
      <trkpt lat="49.42976" lon="1.14105">
        <ele>137.610001</ele>
        <time>2020-12-05T13:34:59Z</time>
      </trkpt>
      <trkpt lat="49.42981" lon="1.14106">
        <ele>137.610001</ele>
        <time>2020-12-05T13:35:00Z</time>
      </trkpt>
      <trkpt lat="49.42985" lon="1.14107">
        <ele>137.130005</ele>
        <time>2020-12-05T13:35:01Z</time>
      </trkpt>
      <trkpt lat="49.42988" lon="1.14108">
        <ele>137.610001</ele>
        <time>2020-12-05T13:35:02Z</time>
      </trkpt>
      <trkpt lat="49.42993" lon="1.14111">
        <ele>137.610001</ele>
        <time>2020-12-05T13:35:03Z</time>
      </trkpt>
      <trkpt lat="49.43018" lon="1.14129">
        <ele>135.679993</ele>
        <time>2020-12-05T13:35:08Z</time>
      </trkpt>
      <trkpt lat="49.43029" lon="1.1414">
        <ele>134.720001</ele>
        <time>2020-12-05T13:35:10Z</time>
      </trkpt>
      <trkpt lat="49.43034" lon="1.14145">
        <ele>133.759995</ele>
        <time>2020-12-05T13:35:11Z</time>
      </trkpt>
      <trkpt lat="49.43039" lon="1.14152">
        <ele>133.279999</ele>
        <time>2020-12-05T13:35:12Z</time>
      </trkpt>
      <trkpt lat="49.43042" lon="1.14159">
        <ele>132.800003</ele>
        <time>2020-12-05T13:35:13Z</time>
      </trkpt>
      <trkpt lat="49.43052" lon="1.14185">
        <ele>128.470001</ele>
        <time>2020-12-05T13:35:17Z</time>
      </trkpt>
      <trkpt lat="49.43049" lon="1.14207">
        <ele>125.110001</ele>
        <time>2020-12-05T13:35:21Z</time>
      </trkpt>
      <trkpt lat="49.43067" lon="1.14212">
        <ele>121.739998</ele>
        <time>2020-12-05T13:35:26Z</time>
      </trkpt>
      <trkpt lat="49.43078" lon="1.14214">
        <ele>120.300003</ele>
        <time>2020-12-05T13:35:30Z</time>
      </trkpt>
      <trkpt lat="49.43096" lon="1.14226">
        <ele>115.5</ele>
        <time>2020-12-05T13:35:34Z</time>
      </trkpt>
      <trkpt lat="49.43099" lon="1.14254">
        <ele>111.169998</ele>
        <time>2020-12-05T13:35:39Z</time>
      </trkpt>
      <trkpt lat="49.43096" lon="1.14267">
        <ele>109.730003</ele>
        <time>2020-12-05T13:35:41Z</time>
      </trkpt>
      <trkpt lat="49.43102" lon="1.14272">
        <ele>108.290001</ele>
        <time>2020-12-05T13:35:43Z</time>
      </trkpt>
      <trkpt lat="49.43106" lon="1.14271">
        <ele>107.809998</ele>
        <time>2020-12-05T13:35:44Z</time>
      </trkpt>
      <trkpt lat="49.43115" lon="1.14269">
        <ele>106.360001</ele>
        <time>2020-12-05T13:35:46Z</time>
      </trkpt>
      <trkpt lat="49.4312" lon="1.1427">
        <ele>105.400002</ele>
        <time>2020-12-05T13:35:47Z</time>
      </trkpt>
      <trkpt lat="49.43124" lon="1.14271">
        <ele>103.959999</ele>
        <time>2020-12-05T13:35:48Z</time>
      </trkpt>
      <trkpt lat="49.43126" lon="1.14275">
        <ele>102.519997</ele>
        <time>2020-12-05T13:35:49Z</time>
      </trkpt>
      <trkpt lat="49.43135" lon="1.14279">
        <ele>100.110001</ele>
        <time>2020-12-05T13:35:55Z</time>
      </trkpt>
      <trkpt lat="49.4314" lon="1.14276">
        <ele>99.629997</ele>
        <time>2020-12-05T13:35:57Z</time>
      </trkpt>
      <trkpt lat="49.43143" lon="1.14273">
        <ele>99.150002</ele>
        <time>2020-12-05T13:35:58Z</time>
      </trkpt>
      <trkpt lat="49.43146" lon="1.1427">
        <ele>99.150002</ele>
        <time>2020-12-05T13:35:59Z</time>
      </trkpt>
      <trkpt lat="49.4315" lon="1.14267">
        <ele>99.150002</ele>
        <time>2020-12-05T13:36:00Z</time>
      </trkpt>
      <trkpt lat="49.43154" lon="1.14264">
        <ele>99.150002</ele>
        <time>2020-12-05T13:36:01Z</time>
      </trkpt>
      <trkpt lat="49.43158" lon="1.14262">
        <ele>99.150002</ele>
        <time>2020-12-05T13:36:02Z</time>
      </trkpt>
      <trkpt lat="49.43188" lon="1.14233">
        <ele>102.040001</ele>
        <time>2020-12-05T13:36:11Z</time>
      </trkpt>
      <trkpt lat="49.43192" lon="1.14217">
        <ele>104.440002</ele>
        <time>2020-12-05T13:36:16Z</time>
      </trkpt>
      <trkpt lat="49.43187" lon="1.1421">
        <ele>107.32</ele>
        <time>2020-12-05T13:36:21Z</time>
      </trkpt>
      <trkpt lat="49.43179" lon="1.14213">
        <ele>109.730003</ele>
        <time>2020-12-05T13:36:26Z</time>
      </trkpt>
      <trkpt lat="49.43177" lon="1.14214">
        <ele>109.730003</ele>
        <time>2020-12-05T13:36:27Z</time>
      </trkpt>
      <trkpt lat="49.43167" lon="1.14212">
        <ele>110.690002</ele>
        <time>2020-12-05T13:36:32Z</time>
      </trkpt>
      <trkpt lat="49.43152" lon="1.14206">
        <ele>112.610001</ele>
        <time>2020-12-05T13:36:39Z</time>
      </trkpt>
      <trkpt lat="49.43149" lon="1.14204">
        <ele>113.57</ele>
        <time>2020-12-05T13:36:41Z</time>
      </trkpt>
      <trkpt lat="49.43145" lon="1.14189">
        <ele>117.900002</ele>
        <time>2020-12-05T13:36:48Z</time>
      </trkpt>
      <trkpt lat="49.43152" lon="1.14173">
        <ele>119.339996</ele>
        <time>2020-12-05T13:36:56Z</time>
      </trkpt>
      <trkpt lat="49.4315" lon="1.14167">
        <ele>120.300003</ele>
        <time>2020-12-05T13:36:58Z</time>
      </trkpt>
      <trkpt lat="49.43147" lon="1.14163">
        <ele>120.779999</ele>
        <time>2020-12-05T13:37:01Z</time>
      </trkpt>
      <trkpt lat="49.43142" lon="1.14166">
        <ele>121.739998</ele>
        <time>2020-12-05T13:37:05Z</time>
      </trkpt>
      <trkpt lat="49.43112" lon="1.14165">
        <ele>124.629997</ele>
        <time>2020-12-05T13:37:19Z</time>
      </trkpt>
      <trkpt lat="49.43102" lon="1.14164">
        <ele>126.07</ele>
        <time>2020-12-05T13:37:24Z</time>
      </trkpt>
      <trkpt lat="49.43099" lon="1.14157">
        <ele>127.029999</ele>
        <time>2020-12-05T13:37:28Z</time>
      </trkpt>
      <trkpt lat="49.43098" lon="1.14147">
        <ele>128.949997</ele>
        <time>2020-12-05T13:37:33Z</time>
      </trkpt>
      <trkpt lat="49.43084" lon="1.1413">
        <ele>131.839996</ele>
        <time>2020-12-05T13:37:43Z</time>
      </trkpt>
      <trkpt lat="49.43058" lon="1.14141">
        <ele>131.839996</ele>
        <time>2020-12-05T13:37:52Z</time>
      </trkpt>
      <trkpt lat="49.43056" lon="1.14139">
        <ele>132.320007</ele>
        <time>2020-12-05T13:37:53Z</time>
      </trkpt>
      <trkpt lat="49.43054" lon="1.14134">
        <ele>132.320007</ele>
        <time>2020-12-05T13:37:54Z</time>
      </trkpt>
      <trkpt lat="49.43054" lon="1.14132">
        <ele>132.800003</ele>
        <time>2020-12-05T13:37:55Z</time>
      </trkpt>
      <trkpt lat="49.43054" lon="1.14127">
        <ele>132.800003</ele>
        <time>2020-12-05T13:37:56Z</time>
      </trkpt>
      <trkpt lat="49.43054" lon="1.14123">
        <ele>133.759995</ele>
        <time>2020-12-05T13:37:57Z</time>
      </trkpt>
      <trkpt lat="49.43054" lon="1.14119">
        <ele>133.759995</ele>
        <time>2020-12-05T13:37:58Z</time>
      </trkpt>
      <trkpt lat="49.43056" lon="1.14098">
        <ele>134.720001</ele>
        <time>2020-12-05T13:38:03Z</time>
      </trkpt>
      <trkpt lat="49.43055" lon="1.14093">
        <ele>134.720001</ele>
        <time>2020-12-05T13:38:04Z</time>
      </trkpt>
      <trkpt lat="49.43053" lon="1.14089">
        <ele>135.679993</ele>
        <time>2020-12-05T13:38:05Z</time>
      </trkpt>
      <trkpt lat="49.43051" lon="1.14085">
        <ele>135.679993</ele>
        <time>2020-12-05T13:38:06Z</time>
      </trkpt>
      <trkpt lat="49.43047" lon="1.14083">
        <ele>136.160004</ele>
        <time>2020-12-05T13:38:07Z</time>
      </trkpt>
      <trkpt lat="49.43045" lon="1.14082">
        <ele>136.160004</ele>
        <time>2020-12-05T13:38:08Z</time>
      </trkpt>
      <trkpt lat="49.43041" lon="1.14065">
        <ele>137.130005</ele>
        <time>2020-12-05T13:38:13Z</time>
      </trkpt>
      <trkpt lat="49.43042" lon="1.1406">
        <ele>137.130005</ele>
        <time>2020-12-05T13:38:14Z</time>
      </trkpt>
      <trkpt lat="49.43043" lon="1.14057">
        <ele>137.130005</ele>
        <time>2020-12-05T13:38:15Z</time>
      </trkpt>
      <trkpt lat="49.43045" lon="1.14047">
        <ele>137.130005</ele>
        <time>2020-12-05T13:38:17Z</time>
      </trkpt>
      <trkpt lat="49.43044" lon="1.14043">
        <ele>137.610001</ele>
        <time>2020-12-05T13:38:18Z</time>
      </trkpt>
      <trkpt lat="49.43022" lon="1.14003">
        <ele>139.529999</ele>
        <time>2020-12-05T13:38:28Z</time>
      </trkpt>
      <trkpt lat="49.43035" lon="1.13973">
        <ele>139.529999</ele>
        <time>2020-12-05T13:38:35Z</time>
      </trkpt>
      <trkpt lat="49.43039" lon="1.1397">
        <ele>139.529999</ele>
        <time>2020-12-05T13:38:36Z</time>
      </trkpt>
      <trkpt lat="49.43056" lon="1.13962">
        <ele>139.529999</ele>
        <time>2020-12-05T13:38:40Z</time>
      </trkpt>
      <trkpt lat="49.43077" lon="1.13973">
        <ele>138.570007</ele>
        <time>2020-12-05T13:38:44Z</time>
      </trkpt>
      <trkpt lat="49.4308" lon="1.13978">
        <ele>138.570007</ele>
        <time>2020-12-05T13:38:45Z</time>
      </trkpt>
      <trkpt lat="49.43083" lon="1.13985">
        <ele>138.089996</ele>
        <time>2020-12-05T13:38:46Z</time>
      </trkpt>
      <trkpt lat="49.43084" lon="1.13994">
        <ele>137.610001</ele>
        <time>2020-12-05T13:38:47Z</time>
      </trkpt>
      <trkpt lat="49.43084" lon="1.14003">
        <ele>137.610001</ele>
        <time>2020-12-05T13:38:48Z</time>
      </trkpt>
      <trkpt lat="49.43084" lon="1.1401">
        <ele>137.610001</ele>
        <time>2020-12-05T13:38:49Z</time>
      </trkpt>
      <trkpt lat="49.43084" lon="1.14018">
        <ele>137.610001</ele>
        <time>2020-12-05T13:38:50Z</time>
      </trkpt>
      <trkpt lat="49.43084" lon="1.14026">
        <ele>137.610001</ele>
        <time>2020-12-05T13:38:51Z</time>
      </trkpt>
      <trkpt lat="49.43085" lon="1.14033">
        <ele>137.610001</ele>
        <time>2020-12-05T13:38:52Z</time>
      </trkpt>
      <trkpt lat="49.43086" lon="1.14041">
        <ele>137.610001</ele>
        <time>2020-12-05T13:38:53Z</time>
      </trkpt>
      <trkpt lat="49.43088" lon="1.14049">
        <ele>136.639999</ele>
        <time>2020-12-05T13:38:54Z</time>
      </trkpt>
      <trkpt lat="49.4309" lon="1.14057">
        <ele>136.639999</ele>
        <time>2020-12-05T13:38:55Z</time>
      </trkpt>
      <trkpt lat="49.43093" lon="1.14064">
        <ele>135.679993</ele>
        <time>2020-12-05T13:38:56Z</time>
      </trkpt>
      <trkpt lat="49.43101" lon="1.14076">
        <ele>134.240005</ele>
        <time>2020-12-05T13:38:58Z</time>
      </trkpt>
      <trkpt lat="49.43127" lon="1.14093">
        <ele>130.880005</ele>
        <time>2020-12-05T13:39:02Z</time>
      </trkpt>
      <trkpt lat="49.43152" lon="1.14087">
        <ele>126.550003</ele>
        <time>2020-12-05T13:39:06Z</time>
      </trkpt>
      <trkpt lat="49.43159" lon="1.14087">
        <ele>124.150002</ele>
        <time>2020-12-05T13:39:08Z</time>
      </trkpt>
      <trkpt lat="49.43165" lon="1.14079">
        <ele>122.709999</ele>
        <time>2020-12-05T13:39:10Z</time>
      </trkpt>
      <trkpt lat="49.43166" lon="1.14072">
        <ele>122.220001</ele>
        <time>2020-12-05T13:39:11Z</time>
      </trkpt>
      <trkpt lat="49.43167" lon="1.14066">
        <ele>122.709999</ele>
        <time>2020-12-05T13:39:12Z</time>
      </trkpt>
      <trkpt lat="49.43166" lon="1.14058">
        <ele>122.709999</ele>
        <time>2020-12-05T13:39:13Z</time>
      </trkpt>
      <trkpt lat="49.43166" lon="1.1405">
        <ele>123.669998</ele>
        <time>2020-12-05T13:39:14Z</time>
      </trkpt>
      <trkpt lat="49.43166" lon="1.14035">
        <ele>124.629997</ele>
        <time>2020-12-05T13:39:16Z</time>
      </trkpt>
      <trkpt lat="49.43163" lon="1.14003">
        <ele>125.110001</ele>
        <time>2020-12-05T13:39:21Z</time>
      </trkpt>
      <trkpt lat="49.43162" lon="1.13995">
        <ele>125.110001</ele>
        <time>2020-12-05T13:39:22Z</time>
      </trkpt>
      <trkpt lat="49.43161" lon="1.13989">
        <ele>125.589996</ele>
        <time>2020-12-05T13:39:23Z</time>
      </trkpt>
      <trkpt lat="49.4316" lon="1.13983">
        <ele>126.550003</ele>
        <time>2020-12-05T13:39:24Z</time>
      </trkpt>
      <trkpt lat="49.43158" lon="1.13977">
        <ele>127.029999</ele>
        <time>2020-12-05T13:39:25Z</time>
      </trkpt>
      <trkpt lat="49.43157" lon="1.13972">
        <ele>127.029999</ele>
        <time>2020-12-05T13:39:26Z</time>
      </trkpt>
      <trkpt lat="49.4315" lon="1.13959">
        <ele>128.470001</ele>
        <time>2020-12-05T13:39:29Z</time>
      </trkpt>
      <trkpt lat="49.43144" lon="1.13958">
        <ele>129.429993</ele>
        <time>2020-12-05T13:39:31Z</time>
      </trkpt>
      <trkpt lat="49.43138" lon="1.13957">
        <ele>131.360001</ele>
        <time>2020-12-05T13:39:34Z</time>
      </trkpt>
      <trkpt lat="49.43135" lon="1.13953">
        <ele>132.800003</ele>
        <time>2020-12-05T13:39:36Z</time>
      </trkpt>
      <trkpt lat="49.43135" lon="1.13934">
        <ele>133.279999</ele>
        <time>2020-12-05T13:39:40Z</time>
      </trkpt>
      <trkpt lat="49.43136" lon="1.13927">
        <ele>133.279999</ele>
        <time>2020-12-05T13:39:41Z</time>
      </trkpt>
      <trkpt lat="49.43138" lon="1.13922">
        <ele>133.279999</ele>
        <time>2020-12-05T13:39:42Z</time>
      </trkpt>
      <trkpt lat="49.4314" lon="1.13915">
        <ele>132.320007</ele>
        <time>2020-12-05T13:39:43Z</time>
      </trkpt>
      <trkpt lat="49.43142" lon="1.13908">
        <ele>131.839996</ele>
        <time>2020-12-05T13:39:44Z</time>
      </trkpt>
      <trkpt lat="49.43146" lon="1.13894">
        <ele>129.429993</ele>
        <time>2020-12-05T13:39:46Z</time>
      </trkpt>
      <trkpt lat="49.43148" lon="1.13885">
        <ele>127.510002</ele>
        <time>2020-12-05T13:39:47Z</time>
      </trkpt>
      <trkpt lat="49.43149" lon="1.13868">
        <ele>126.550003</ele>
        <time>2020-12-05T13:39:50Z</time>
      </trkpt>
      <trkpt lat="49.43148" lon="1.1384">
        <ele>122.220001</ele>
        <time>2020-12-05T13:39:55Z</time>
      </trkpt>
      <trkpt lat="49.43142" lon="1.13817">
        <ele>124.150002</ele>
        <time>2020-12-05T13:40:00Z</time>
      </trkpt>
      <trkpt lat="49.43138" lon="1.13799">
        <ele>127.029999</ele>
        <time>2020-12-05T13:40:05Z</time>
      </trkpt>
      <trkpt lat="49.4313" lon="1.1377">
        <ele>131.839996</ele>
        <time>2020-12-05T13:40:13Z</time>
      </trkpt>
      <trkpt lat="49.43129" lon="1.13767">
        <ele>131.839996</ele>
        <time>2020-12-05T13:40:14Z</time>
      </trkpt>
      <trkpt lat="49.43115" lon="1.1372">
        <ele>133.279999</ele>
        <time>2020-12-05T13:40:25Z</time>
      </trkpt>
      <trkpt lat="49.43114" lon="1.13715">
        <ele>132.800003</ele>
        <time>2020-12-05T13:40:26Z</time>
      </trkpt>
      <trkpt lat="49.43105" lon="1.13678">
        <ele>136.639999</ele>
        <time>2020-12-05T13:40:35Z</time>
      </trkpt>
      <trkpt lat="49.43101" lon="1.13679">
        <ele>137.610001</ele>
        <time>2020-12-05T13:40:37Z</time>
      </trkpt>
      <trkpt lat="49.431" lon="1.13682">
        <ele>137.610001</ele>
        <time>2020-12-05T13:40:38Z</time>
      </trkpt>
      <trkpt lat="49.43098" lon="1.13685">
        <ele>137.610001</ele>
        <time>2020-12-05T13:40:39Z</time>
      </trkpt>
      <trkpt lat="49.43093" lon="1.13692">
        <ele>139.050003</ele>
        <time>2020-12-05T13:40:41Z</time>
      </trkpt>
      <trkpt lat="49.43088" lon="1.13695">
        <ele>139.050003</ele>
        <time>2020-12-05T13:40:43Z</time>
      </trkpt>
      <trkpt lat="49.43086" lon="1.13695">
        <ele>139.529999</ele>
        <time>2020-12-05T13:40:44Z</time>
      </trkpt>
      <trkpt lat="49.43075" lon="1.13696">
        <ele>140.009995</ele>
        <time>2020-12-05T13:40:48Z</time>
      </trkpt>
      <trkpt lat="49.43039" lon="1.13701">
        <ele>140.970001</ele>
        <time>2020-12-05T13:41:00Z</time>
      </trkpt>
      <trkpt lat="49.43012" lon="1.13691">
        <ele>141.449997</ele>
        <time>2020-12-05T13:41:09Z</time>
      </trkpt>
      <trkpt lat="49.42981" lon="1.13717">
        <ele>142.410004</ele>
        <time>2020-12-05T13:41:18Z</time>
      </trkpt>
      <trkpt lat="49.42957" lon="1.13748">
        <ele>142.889999</ele>
        <time>2020-12-05T13:41:25Z</time>
      </trkpt>
      <trkpt lat="49.42958" lon="1.13768">
        <ele>142.889999</ele>
        <time>2020-12-05T13:41:29Z</time>
      </trkpt>
      <trkpt lat="49.42975" lon="1.13775">
        <ele>142.889999</ele>
        <time>2020-12-05T13:41:33Z</time>
      </trkpt>
      <trkpt lat="49.42997" lon="1.13766">
        <ele>142.889999</ele>
        <time>2020-12-05T13:41:38Z</time>
      </trkpt>
      <trkpt lat="49.43037" lon="1.13754">
        <ele>141.449997</ele>
        <time>2020-12-05T13:41:47Z</time>
      </trkpt>
      <trkpt lat="49.43051" lon="1.13781">
        <ele>140.490005</ele>
        <time>2020-12-05T13:41:55Z</time>
      </trkpt>
      <trkpt lat="49.43043" lon="1.13791">
        <ele>140.009995</ele>
        <time>2020-12-05T13:41:57Z</time>
      </trkpt>
      <trkpt lat="49.43031" lon="1.13805">
        <ele>140.009995</ele>
        <time>2020-12-05T13:42:01Z</time>
      </trkpt>
      <trkpt lat="49.43047" lon="1.13822">
        <ele>140.009995</ele>
        <time>2020-12-05T13:42:08Z</time>
      </trkpt>
      <trkpt lat="49.43061" lon="1.1385">
        <ele>139.050003</ele>
        <time>2020-12-05T13:42:13Z</time>
      </trkpt>
      <trkpt lat="49.43059" lon="1.13854">
        <ele>139.050003</ele>
        <time>2020-12-05T13:42:14Z</time>
      </trkpt>
      <trkpt lat="49.43052" lon="1.1386">
        <ele>139.050003</ele>
        <time>2020-12-05T13:42:16Z</time>
      </trkpt>
      <trkpt lat="49.43027" lon="1.13876">
        <ele>140.009995</ele>
        <time>2020-12-05T13:42:25Z</time>
      </trkpt>
      <trkpt lat="49.43021" lon="1.13884">
        <ele>140.009995</ele>
        <time>2020-12-05T13:42:27Z</time>
      </trkpt>
      <trkpt lat="49.43011" lon="1.13897">
        <ele>140.009995</ele>
        <time>2020-12-05T13:42:30Z</time>
      </trkpt>
      <trkpt lat="49.42998" lon="1.1389">
        <ele>140.970001</ele>
        <time>2020-12-05T13:42:34Z</time>
      </trkpt>
      <trkpt lat="49.42953" lon="1.13902">
        <ele>142.889999</ele>
        <time>2020-12-05T13:42:47Z</time>
      </trkpt>
      <trkpt lat="49.42935" lon="1.13913">
        <ele>141.449997</ele>
        <time>2020-12-05T13:42:59Z</time>
      </trkpt>
      <trkpt lat="49.42922" lon="1.13921">
        <ele>141.449997</ele>
        <time>2020-12-05T13:43:17Z</time>
      </trkpt>
      <trkpt lat="49.42924" lon="1.13921">
        <ele>141.449997</ele>
        <time>2020-12-05T13:43:43Z</time>
      </trkpt>
      <trkpt lat="49.42924" lon="1.13923">
        <ele>140.490005</ele>
        <time>2020-12-05T13:43:58Z</time>
      </trkpt>
      <trkpt lat="49.4292" lon="1.13924">
        <ele>140.009995</ele>
        <time>2020-12-05T13:44:51Z</time>
      </trkpt>
      <trkpt lat="49.4292" lon="1.13922">
        <ele>140.009995</ele>
        <time>2020-12-05T13:45:20Z</time>
      </trkpt>
      <trkpt lat="49.42923" lon="1.13921">
        <ele>140.970001</ele>
        <time>2020-12-05T13:45:51Z</time>
      </trkpt>
      <trkpt lat="49.42922" lon="1.13923">
        <ele>139.529999</ele>
        <time>2020-12-05T13:46:22Z</time>
      </trkpt>
      <trkpt lat="49.42922" lon="1.1392">
        <ele>140.490005</ele>
        <time>2020-12-05T13:47:22Z</time>
      </trkpt>
      <trkpt lat="49.42922" lon="1.13918">
        <ele>140.490005</ele>
        <time>2020-12-05T13:47:53Z</time>
      </trkpt>
      <trkpt lat="49.42922" lon="1.1392">
        <ele>139.050003</ele>
        <time>2020-12-05T13:48:00Z</time>
      </trkpt>
      <trkpt lat="49.42924" lon="1.13922">
        <ele>139.529999</ele>
        <time>2020-12-05T13:48:49Z</time>
      </trkpt>
      <trkpt lat="49.42925" lon="1.13926">
        <ele>139.529999</ele>
        <time>2020-12-05T13:49:12Z</time>
      </trkpt>
      <trkpt lat="49.42923" lon="1.13924">
        <ele>139.529999</ele>
        <time>2020-12-05T13:49:39Z</time>
      </trkpt>
      <trkpt lat="49.42924" lon="1.13922">
        <ele>139.529999</ele>
        <time>2020-12-05T13:50:01Z</time>
      </trkpt>
      <trkpt lat="49.42923" lon="1.13923">
        <ele>139.529999</ele>
        <time>2020-12-05T13:50:09Z</time>
      </trkpt>
      <trkpt lat="49.42912" lon="1.13934">
        <ele>140.490005</ele>
        <time>2020-12-05T13:50:15Z</time>
      </trkpt>
      <trkpt lat="49.42918" lon="1.13964">
        <ele>140.490005</ele>
        <time>2020-12-05T13:50:20Z</time>
      </trkpt>
      <trkpt lat="49.42925" lon="1.13978">
        <ele>140.490005</ele>
        <time>2020-12-05T13:50:23Z</time>
      </trkpt>
      <trkpt lat="49.42928" lon="1.14023">
        <ele>139.050003</ele>
        <time>2020-12-05T13:50:29Z</time>
      </trkpt>
      <trkpt lat="49.42921" lon="1.14051">
        <ele>137.610001</ele>
        <time>2020-12-05T13:50:34Z</time>
      </trkpt>
      <trkpt lat="49.42916" lon="1.14052">
        <ele>136.639999</ele>
        <time>2020-12-05T13:50:35Z</time>
      </trkpt>
      <trkpt lat="49.42911" lon="1.14051">
        <ele>136.639999</ele>
        <time>2020-12-05T13:50:36Z</time>
      </trkpt>
      <trkpt lat="49.42907" lon="1.1405">
        <ele>136.639999</ele>
        <time>2020-12-05T13:50:37Z</time>
      </trkpt>
      <trkpt lat="49.42902" lon="1.1405">
        <ele>136.639999</ele>
        <time>2020-12-05T13:50:38Z</time>
      </trkpt>
      <trkpt lat="49.42897" lon="1.14048">
        <ele>136.639999</ele>
        <time>2020-12-05T13:50:39Z</time>
      </trkpt>
      <trkpt lat="49.42892" lon="1.14045">
        <ele>136.639999</ele>
        <time>2020-12-05T13:50:40Z</time>
      </trkpt>
      <trkpt lat="49.42888" lon="1.14039">
        <ele>138.089996</ele>
        <time>2020-12-05T13:50:41Z</time>
      </trkpt>
      <trkpt lat="49.42884" lon="1.14032">
        <ele>138.089996</ele>
        <time>2020-12-05T13:50:42Z</time>
      </trkpt>
      <trkpt lat="49.42845" lon="1.13968">
        <ele>139.050003</ele>
        <time>2020-12-05T13:50:51Z</time>
      </trkpt>
    </trkseg>
  </trk>
</gpx>